Terminal Aerodrome Forecast
Issued by NWS

Home | Current Version | Previous Version | Text Only | Print | Product List | Glossary On
Versions: 1 2 3 4 5 6 7 8 9 10 11 12 13 14 15 16 17 18 19 20 21 22 23 24 25 26 27 28 29 30 31
000
FTUS41 KBOX 302320
TAFFMH
TAF
KFMH 302320Z 3100/3124 22014G24KT 6SM -RA BR SCT015 BKN050
     FM310200 23011G22KT 3SM -RA BR OVC015
     FM310500 24007KT 6SM BR VCSH SCT003 OVC015
     FM310700 25006KT 6SM BR VCSH SCT015 BKN060
     FM311000 27005KT P6SM SCT060
     FM311800 23009KT P6SM FEW250=

USA.gov is the U.S. government's official web portal to all federal, state and local government web resources and services.